createdAt,value
2019-02-12T00:05:43.972Z,102535.50
2019-02-12T00:08:53.039Z,102574.58
2019-02-12T00:11:35.193Z,102546.94
2019-02-12T00:14:24.537Z,102574.22
2019-02-12T00:16:55.135Z,102572.87
2019-02-12T00:19:25.416Z,102572.64
2019-02-12T00:22:14.987Z,102536.62
2019-02-12T00:24:57.235Z,102570.04
2019-02-12T00:30:35.439Z,102528.39
2019-02-12T00:33:44.563Z,102529.53
2019-02-12T00:36:27.153Z,102530.91
2019-02-12T00:39:16.498Z,102532.16
2019-02-12T00:42:00.517Z,102562.74
2019-02-12T00:44:49.989Z,102566.84
2019-02-12T00:47:31.945Z,102574.44
2019-02-12T00:50:40.841Z,102548.73
2019-02-12T00:53:23.436Z,102572.79
2019-02-12T00:56:06.114Z,102543.97
2019-02-12T00:59:14.892Z,102542.91
2019-02-12T01:01:57.619Z,102570.64
2019-02-12T01:04:47.615Z,102576.39
2019-02-12T01:07:30.102Z,102554.17
2019-02-12T01:16:10.605Z,102599.73
2019-02-12T01:19:00.563Z,102568.11
2019-02-12T01:21:42.704Z,102615.54
2019-02-12T01:24:32.636Z,102576.20
2019-02-12T01:27:14.521Z,102579.91
2019-02-12T01:32:41.628Z,102585.63
2019-02-12T01:35:23.475Z,102581.31
2019-02-12T01:40:48.591Z,102616.05
2019-02-12T01:43:30.980Z,102614.47
2019-02-12T01:49:22.038Z,102578.19
2019-02-12T01:52:11.649Z,102592.14
2019-02-12T01:54:53.593Z,102625.64
2019-02-12T01:57:42.881Z,102602.45
2019-02-12T02:00:24.864Z,102605.66
2019-02-12T02:03:14.472Z,102611.81
2019-02-12T02:05:57.073Z,102647.91
2019-02-12T02:08:46.375Z,102647.42
2019-02-12T02:11:28.886Z,102611.25
2019-02-12T02:17:18.238Z,102642.88
2019-02-12T02:20:08.254Z,102602.45
2019-02-12T02:22:58.848Z,102641.52
2019-02-12T02:25:48.227Z,102643.53
2019-02-12T02:28:37.731Z,102650.87
2019-02-12T02:31:26.975Z,102616.13
2019-02-12T02:34:08.595Z,102645.65
2019-02-12T02:36:58.216Z,102609.37
2019-02-12T02:39:40.019Z,102644.49
2019-02-12T02:42:29.467Z,102654.31
2019-02-12T02:45:11.519Z,102619.11
2019-02-12T02:48:00.879Z,102641.48
2019-02-12T02:50:43.175Z,102621.06
2019-02-12T02:56:40.045Z,102643.20
2019-02-12T03:08:18.321Z,102651.62
2019-02-12T03:14:08.953Z,102648.38
2019-02-12T03:16:58.188Z,102640.09
2019-02-12T03:19:40.571Z,102638.14
2019-02-12T03:25:31.984Z,102643.18
2019-02-12T03:28:40.720Z,102664.16
2019-02-12T03:31:22.432Z,102637.72
2019-02-12T03:34:12.040Z,102657.36
2019-02-12T03:36:53.908Z,102646.78
2019-02-12T03:40:02.647Z,102674.48
2019-02-12T03:42:44.627Z,102635.12
2019-02-12T03:45:34.176Z,102672.84
2019-02-12T03:48:15.946Z,102681.04
2019-02-12T03:54:07.073Z,102657.45
2019-02-12T03:59:38.446Z,102668.93
2019-02-12T04:02:27.788Z,102729.84
2019-02-12T04:05:10.672Z,102711.87
2019-02-12T04:08:00.306Z,102681.78
2019-02-12T04:10:41.923Z,102684.39
2019-02-12T04:16:18.974Z,102721.51
2019-02-12T04:19:09.179Z,102678.73
2019-02-12T04:21:51.340Z,102669.19
2019-02-12T04:24:40.936Z,102671.44
2019-02-12T04:27:25.035Z,102676.02
2019-02-12T04:30:14.741Z,102711.45
2019-02-12T04:32:57.194Z,102669.39
2019-02-12T04:38:22.303Z,102708.73
2019-02-12T04:41:04.758Z,102675.09
2019-02-12T04:43:54.416Z,102681.52
2019-02-12T04:46:36.602Z,102713.52
2019-02-12T04:52:31.991Z,102697.33
2019-02-12T04:55:00.121Z,102712.20
2019-02-12T04:57:50.404Z,102688.33
2019-02-12T05:00:39.844Z,102722.64
2019-02-12T05:06:24.278Z,102722.34
2019-02-12T05:09:13.199Z,102693.75
2019-02-12T05:12:22.502Z,102708.48
2019-02-12T05:15:05.324Z,102693.59
2019-02-12T05:17:55.034Z,102721.50
2019-02-12T05:20:37.140Z,102714.22
2019-02-12T05:23:26.746Z,102707.28
2019-02-12T05:26:09.352Z,102688.61
2019-02-12T05:28:58.631Z,102705.36
2019-02-12T05:31:40.594Z,102708.35
2019-02-12T05:34:30.212Z,102696.27
2019-02-12T05:37:12.375Z,102697.75
2019-02-12T05:43:06.962Z,102698.22
2019-02-12T05:49:01.770Z,102700.61
2019-02-12T05:51:51.384Z,102739.83
2019-02-12T05:54:37.696Z,102749.52
2019-02-12T05:57:27.352Z,102758.77
2019-02-12T06:00:11.393Z,102754.75
2019-02-12T06:03:00.769Z,102730.86
2019-02-12T06:05:42.405Z,102738.11
2019-02-12T06:08:31.755Z,102729.30
2019-02-12T06:11:13.800Z,102743.11
2019-02-12T06:16:39.044Z,102782.00
2019-02-12T06:19:28.980Z,102778.61
2019-02-12T06:22:18.498Z,102755.81
2019-02-12T06:24:48.972Z,102796.91
2019-02-12T06:27:38.739Z,102759.98
2019-02-12T06:30:20.884Z,102772.72
2019-02-12T06:33:10.499Z,102781.06
2019-02-12T06:35:52.569Z,102784.10
2019-02-12T06:41:17.579Z,102812.52
2019-02-12T06:44:07.256Z,102781.60
2019-02-12T06:46:57.245Z,102788.00
2019-02-12T06:49:39.272Z,102787.52
2019-02-12T06:52:30.933Z,102799.93
2019-02-12T06:55:13.556Z,102827.64
2019-02-12T06:58:03.142Z,102792.19
2019-02-12T07:00:46.086Z,102832.81
2019-02-12T07:04:14.084Z,102841.92
2019-02-12T07:07:15.641Z,102811.47
2019-02-12T07:10:29.145Z,102851.70
2019-02-12T07:13:30.485Z,102826.34
2019-02-12T07:16:42.812Z,102864.18
2019-02-12T07:19:50.553Z,102840.36
2019-02-12T07:26:11.987Z,102838.85
2019-02-12T07:29:39.662Z,102885.53
2019-02-12T07:32:40.767Z,102861.30
2019-02-12T07:36:08.380Z,102863.08
2019-02-12T07:39:09.581Z,102899.70
2019-02-12T07:42:00.293Z,102877.75
2019-02-12T07:45:27.979Z,102878.36
2019-02-12T07:48:31.846Z,102913.63
2019-02-12T07:52:00.291Z,102917.61
2019-02-12T07:55:02.202Z,102923.31
2019-02-12T07:58:30.727Z,102930.23
2019-02-12T08:01:19.383Z,102901.27
2019-02-12T08:04:47.235Z,102904.80
2019-02-12T08:07:48.824Z,102907.13
2019-02-12T08:11:16.738Z,102905.15
2019-02-12T08:14:19.027Z,102944.66
2019-02-12T08:17:47.196Z,102953.23
2019-02-12T08:21:14.853Z,102920.92
2019-02-12T08:24:17.651Z,102923.69
2019-02-12T08:27:31.185Z,102958.98
2019-02-12T08:37:12.811Z,102990.11
2019-02-12T08:40:29.503Z,102962.55
2019-02-12T08:43:30.734Z,102952.01
2019-02-12T08:46:58.398Z,102950.11
2019-02-12T08:59:21.927Z,102964.73
2019-02-12T09:02:49.583Z,102963.79
2019-02-12T09:05:45.845Z,102967.39
2019-02-12T09:12:01.035Z,103008.81
2019-02-12T09:14:48.343Z,103002.82
2019-02-12T09:17:45.602Z,103003.33
2019-02-12T09:21:14.285Z,103003.42
2019-02-12T09:24:17.312Z,102977.77
2019-02-12T09:27:45.107Z,103007.34
2019-02-12T09:30:46.305Z,102979.80
2019-02-12T09:37:06.898Z,103015.38
2019-02-12T09:40:34.927Z,103009.97
2019-02-12T09:43:36.379Z,102987.16
2019-02-12T09:46:49.496Z,103011.48
2019-02-12T09:50:17.432Z,103021.87
2019-02-12T09:53:20.075Z,103020.56
2019-02-12T10:00:15.521Z,102992.41
2019-02-12T10:03:16.839Z,102988.06
2019-02-12T10:06:44.440Z,103017.04
2019-02-12T10:09:45.963Z,102989.30
2019-02-12T10:12:57.490Z,102994.17
2019-02-12T10:15:51.713Z,103008.51
2019-02-12T10:19:05.223Z,103016.09
2019-02-12T10:22:33.160Z,103020.80
2019-02-12T10:25:22.560Z,103021.89
2019-02-12T10:28:50.313Z,103050.96
2019-02-12T10:31:55.596Z,103053.59
2019-02-12T10:34:38.560Z,103045.47
2019-02-12T10:37:47.349Z,103026.95
2019-02-12T10:40:29.527Z,103035.09
2019-02-12T10:43:18.883Z,103040.16
2019-02-12T10:46:00.866Z,103040.95
2019-02-12T10:48:50.493Z,103081.30
2019-02-12T10:51:20.799Z,103078.22
2019-02-12T10:57:14.835Z,103055.70
2019-02-12T11:00:04.448Z,103044.44
2019-02-12T11:02:46.784Z,103050.88
2019-02-12T11:05:36.123Z,103043.12
2019-02-12T11:08:18.240Z,103034.84
2019-02-12T11:10:48.784Z,103062.68
2019-02-12T11:13:57.652Z,103029.97
2019-02-12T11:19:44.992Z,103013.90
2019-02-12T11:22:27.586Z,103012.48
2019-02-12T11:25:17.293Z,103001.06
2019-02-12T11:27:59.232Z,103011.39
2019-02-12T11:30:48.955Z,103024.72
2019-02-12T11:33:30.565Z,103003.66
2019-02-12T11:36:20.472Z,103038.41
2019-02-12T11:39:02.678Z,103006.58
2019-02-12T11:41:45.267Z,103003.60
2019-02-12T11:44:27.222Z,103005.41
2019-02-12T11:47:17.092Z,103007.40
2019-02-12T11:49:59.735Z,103008.53
2019-02-12T11:55:41.021Z,103013.48
2019-02-12T11:58:30.915Z,103008.19
2019-02-12T12:07:00.778Z,103010.73
2019-02-12T12:09:50.110Z,103016.09
2019-02-12T12:12:32.366Z,103009.00
2019-02-12T12:15:21.704Z,103052.17
2019-02-12T12:18:03.339Z,103047.59
2019-02-12T12:23:59.017Z,103026.93
2019-02-12T12:26:48.676Z,103031.39
2019-02-12T12:29:31.326Z,103034.66
2019-02-12T12:32:22.686Z,103065.12
2019-02-12T12:35:04.950Z,103034.95
2019-02-12T12:37:54.579Z,103037.66
2019-02-12T12:40:36.763Z,103065.61
2019-02-12T12:43:26.440Z,103032.50
2019-02-12T12:46:09.224Z,103036.17
2019-02-12T12:48:59.281Z,103030.31
2019-02-12T12:51:42.855Z,103072.03
2019-02-12T12:54:58.449Z,103032.59
2019-02-12T12:57:41.645Z,103064.05
2019-02-12T13:00:40.720Z,103066.61
2019-02-12T13:03:10.349Z,103057.59
2019-02-12T13:06:00.040Z,103075.52
2019-02-12T13:08:41.890Z,103074.20
2019-02-12T13:11:31.320Z,103057.22
2019-02-12T13:14:13.714Z,103049.41
2019-02-12T13:17:03.318Z,103086.72
2019-02-12T13:19:47.874Z,103083.39
2019-02-12T13:22:37.434Z,103053.37
2019-02-12T13:25:27.156Z,103052.14
2019-02-12T13:28:11.066Z,103083.41
2019-02-12T13:31:00.479Z,103079.17
2019-02-12T13:33:43.723Z,103093.05
2019-02-12T13:36:33.144Z,103055.16
2019-02-12T13:39:14.819Z,103095.92
2019-02-12T13:42:04.512Z,103097.67
2019-02-12T13:44:50.787Z,103059.98
2019-02-12T13:47:40.716Z,103086.50
2019-02-12T13:50:26.266Z,103061.74
2019-02-12T13:53:15.695Z,103068.38
2019-02-12T13:55:57.722Z,103085.20
2019-02-12T13:58:47.172Z,103067.23
2019-02-12T14:01:29.451Z,103053.87
2019-02-12T14:04:19.204Z,103077.17
2019-02-12T14:07:01.452Z,103066.27
2019-02-12T14:09:51.080Z,103062.36
2019-02-12T14:12:35.024Z,103045.76
2019-02-12T14:15:24.465Z,103042.41
2019-02-12T14:18:06.352Z,103042.92
2019-02-12T14:23:46.008Z,103058.52
2019-02-12T14:26:35.397Z,103053.60
2019-02-12T14:29:17.508Z,103086.98
2019-02-12T14:32:08.824Z,103084.89
2019-02-12T14:34:52.301Z,103051.08
2019-02-12T14:37:41.937Z,103066.14
2019-02-12T14:40:24.241Z,103054.39
2019-02-12T14:43:13.836Z,103088.83
2019-02-12T14:45:58.761Z,103057.56
2019-02-12T14:48:41.283Z,103095.06
2019-02-12T14:51:30.676Z,103064.00
2019-02-12T14:54:13.958Z,103090.11
2019-02-12T14:56:55.907Z,103058.25
2019-02-12T14:59:45.520Z,103088.88
2019-02-12T15:02:27.946Z,103054.56
2019-02-12T15:05:17.585Z,103065.83
2019-02-12T15:08:00.671Z,103102.65
2019-02-12T15:13:55.256Z,103096.88
2019-02-12T15:16:44.778Z,103064.98
2019-02-12T15:19:27.315Z,103075.27
2019-02-12T15:25:19.507Z,103089.23
2019-02-12T15:28:28.249Z,103056.55
2019-02-12T15:31:10.921Z,103080.17
2019-02-12T15:34:00.534Z,103049.18
2019-02-12T15:36:42.845Z,103089.59
2019-02-12T15:39:32.468Z,103067.09
2019-02-12T15:42:15.389Z,103106.77
2019-02-12T15:44:57.804Z,103082.17
2019-02-12T15:50:35.192Z,103100.64
2019-02-12T15:53:25.430Z,103068.44
2019-02-12T15:56:08.160Z,103103.08
2019-02-12T15:58:53.673Z,103101.34
2019-02-12T16:01:43.776Z,103067.52
2019-02-12T16:04:26.128Z,103068.59
2019-02-12T16:07:15.768Z,103060.38
2019-02-12T16:10:06.357Z,103095.42
2019-02-12T16:12:55.703Z,103065.73
2019-02-12T16:15:47.001Z,103089.98
2019-02-12T16:18:36.339Z,103084.61
2019-02-12T16:21:19.085Z,103060.20
2019-02-12T16:24:08.492Z,103082.66
2019-02-12T16:26:58.059Z,103080.69
2019-02-12T16:29:48.043Z,103046.48
2019-02-12T16:32:30.297Z,103048.50
2019-02-12T16:35:13.346Z,103071.16
2019-02-12T16:38:02.653Z,103049.11
2019-02-12T16:40:44.729Z,103070.80
2019-02-12T16:43:34.314Z,103049.52
2019-02-12T16:49:15.330Z,103046.83
2019-02-12T16:51:57.134Z,103076.66
2019-02-12T16:55:05.614Z,103049.53
2019-02-12T17:00:51.459Z,103088.39
2019-02-12T17:09:08.160Z,103091.10
2019-02-12T17:11:57.600Z,103099.83
2019-02-12T17:14:46.829Z,103064.59
2019-02-12T17:17:28.839Z,103088.61
2019-02-12T17:23:22.993Z,103090.80
2019-02-12T17:29:01.184Z,103062.28
2019-02-12T17:31:51.625Z,103056.09
2019-02-12T17:34:33.525Z,103058.17
2019-02-12T17:37:22.779Z,103054.34
2019-02-12T17:40:06.395Z,103061.88
2019-02-12T17:42:56.107Z,103058.55
2019-02-12T17:45:38.314Z,103098.55
2019-02-12T17:48:20.206Z,103071.04
2019-02-12T17:51:09.630Z,103072.08
2019-02-12T17:53:51.333Z,103067.23
2019-02-12T17:56:41.955Z,103065.66
2019-02-12T17:59:23.572Z,103093.41
2019-02-12T18:02:12.957Z,103066.78
2019-02-12T18:04:55.166Z,103065.66
2019-02-12T18:10:32.156Z,103063.05
2019-02-12T18:13:23.299Z,103055.59
2019-02-12T18:16:06.722Z,103056.31
2019-02-12T18:21:43.447Z,103078.37
2019-02-12T18:24:33.154Z,103076.84
2019-02-12T18:27:15.537Z,103039.60
2019-02-12T18:32:41.797Z,103077.50
2019-02-12T18:35:24.329Z,103043.77
2019-02-12T18:38:13.959Z,103049.17
2019-02-12T18:40:56.292Z,103042.12
2019-02-12T18:43:46.212Z,103076.06
2019-02-12T18:46:28.562Z,103073.30
2019-02-12T18:49:18.218Z,103038.13
2019-02-12T18:52:00.185Z,103044.82
2019-02-12T18:54:49.811Z,103034.84
2019-02-12T18:57:31.947Z,103063.47
2019-02-12T19:06:03.188Z,103022.58
2019-02-12T19:08:46.591Z,103064.85
2019-02-12T19:11:44.660Z,103068.85
2019-02-12T19:14:20.789Z,103031.33
2019-02-12T19:17:10.246Z,103074.11
2019-02-12T19:19:53.245Z,103047.24
2019-02-12T19:22:42.660Z,103077.59
2019-02-12T19:25:24.868Z,103027.70
2019-02-12T19:28:07.603Z,103062.05
2019-02-12T19:30:56.980Z,103056.25
2019-02-12T19:33:46.734Z,103057.61
2019-02-12T19:36:17.031Z,103068.44
2019-02-12T19:42:03.511Z,103027.44
2019-02-12T19:44:53.072Z,103029.89
2019-02-12T19:47:35.732Z,103063.47
2019-02-12T19:50:25.472Z,103038.47
2019-02-12T19:53:07.509Z,103059.23
2019-02-12T19:55:57.339Z,103015.81
2019-02-12T19:58:40.130Z,103016.63
2019-02-12T20:04:17.808Z,103022.15
2019-02-12T20:07:07.662Z,103021.98
2019-02-12T20:09:50.658Z,103062.86
2019-02-12T20:15:29.504Z,103054.99
2019-02-12T20:21:08.213Z,103061.03
2019-02-12T20:26:46.379Z,103056.25
2019-02-12T20:32:23.843Z,103027.50
2019-02-12T20:35:13.620Z,103059.64
2019-02-12T20:38:03.227Z,103062.77
2019-02-12T20:40:45.226Z,103043.15
2019-02-12T20:43:34.728Z,103054.91
2019-02-12T20:46:17.167Z,103056.21
2019-02-12T20:51:55.102Z,103069.13
2019-02-12T20:54:44.700Z,103045.86
2019-02-12T20:57:31.494Z,103061.40
2019-02-12T21:00:15.640Z,103051.28
2019-02-12T21:03:05.287Z,103048.78
2019-02-12T21:05:47.279Z,103062.15
2019-02-12T21:11:18.640Z,103069.38
2019-02-12T21:14:08.828Z,103098.77
2019-02-12T21:16:52.185Z,103066.45
2019-02-12T21:19:41.603Z,103061.91
2019-02-12T21:22:23.623Z,103054.03
2019-02-12T21:25:13.026Z,103076.96
2019-02-12T21:27:55.777Z,103089.04
2019-02-12T21:30:45.102Z,103050.16
2019-02-12T21:33:30.992Z,103051.26
2019-02-12T21:36:20.966Z,103095.14
2019-02-12T21:38:51.654Z,103094.44
2019-02-12T21:41:33.854Z,103054.25
2019-02-12T21:44:23.290Z,103059.48
2019-02-12T21:47:05.866Z,103062.89
2019-02-12T21:50:14.383Z,103094.22
2019-02-12T21:52:57.607Z,103093.20
2019-02-12T21:58:35.225Z,103069.27
2019-02-12T22:01:05.516Z,103105.55
2019-02-12T22:03:55.194Z,103078.18
2019-02-12T22:06:44.884Z,103067.18
2019-02-12T22:09:27.614Z,103072.74
2019-02-12T22:12:17.453Z,103110.48
2019-02-12T22:14:59.792Z,103106.91
2019-02-12T22:17:49.501Z,103117.28
2019-02-12T22:20:31.852Z,103090.47
2019-02-12T22:23:15.070Z,103092.97
2019-02-12T22:29:06.434Z,103112.52
2019-02-12T22:34:45.282Z,103115.88
2019-02-12T22:37:34.906Z,103077.66
2019-02-12T22:40:18.335Z,103083.20
2019-02-12T22:43:00.827Z,103088.52
2019-02-12T22:45:50.498Z,103089.92
2019-02-12T22:48:32.435Z,103091.06
2019-02-12T22:51:22.108Z,103087.98
2019-02-12T22:54:04.766Z,103083.46
2019-02-12T22:56:54.473Z,103116.52
2019-02-12T22:59:36.472Z,103119.72
2019-02-12T23:02:26.257Z,103121.42
2019-02-12T23:05:08.575Z,103084.78
2019-02-12T23:10:56.122Z,103117.41
2019-02-12T23:13:40.814Z,103086.95
2019-02-12T23:16:30.478Z,103083.56
2019-02-12T23:22:23.776Z,103107.72
2019-02-12T23:25:06.341Z,103125.20
2019-02-12T23:28:15.430Z,103123.14
2019-02-12T23:30:58.557Z,103122.97
2019-02-12T23:33:48.106Z,103120.97
2019-02-12T23:36:31.491Z,103129.50
2019-02-12T23:39:21.211Z,103125.30
2019-02-12T23:42:03.373Z,103129.91
2019-02-12T23:44:45.872Z,103119.79
2019-02-12T23:47:35.541Z,103119.62
2019-02-12T23:50:17.725Z,103112.48
2019-02-12T23:53:07.289Z,103083.21
2019-02-12T23:55:52.003Z,103118.09
2019-02-12T23:58:41.665Z,103078.41
